sensor_id;sensor_type;location;lat;lon;timestamp;temperature;humidity
31783;DHT22;18351;47.560;9.708;2023-01-08T00:01:21;1.90;99.90
31783;DHT22;18351;47.560;9.708;2023-01-08T00:03:47;2.00;99.90
31783;DHT22;18351;47.560;9.708;2023-01-08T00:06:15;2.00;99.90
31783;DHT22;18351;47.560;9.708;2023-01-08T00:08:41;1.90;99.90
31783;DHT22;18351;47.560;9.708;2023-01-08T00:11:07;1.80;99.90
31783;DHT22;18351;47.560;9.708;2023-01-08T00:13:33;1.80;99.90
31783;DHT22;18351;47.560;9.708;2023-01-08T00:16:06;1.70;99.90
31783;DHT22;18351;47.560;9.708;2023-01-08T00:18:32;1.70;99.90
31783;DHT22;18351;47.560;9.708;2023-01-08T00:20:58;1.60;99.90
31783;DHT22;18351;47.560;9.708;2023-01-08T00:23:24;1.60;99.90
31783;DHT22;18351;47.560;9.708;2023-01-08T00:25:50;1.60;99.90
31783;DHT22;18351;47.560;9.708;2023-01-08T00:28:16;1.60;99.90
31783;DHT22;18351;47.560;9.708;2023-01-08T00:30:42;1.70;99.90
31783;DHT22;18351;47.560;9.708;2023-01-08T00:33:08;1.80;99.90
31783;DHT22;18351;47.560;9.708;2023-01-08T00:35:34;1.90;99.90
31783;DHT22;18351;47.560;9.708;2023-01-08T00:37:59;1.90;99.90
31783;DHT22;18351;47.560;9.708;2023-01-08T00:40:25;2.00;99.90
31783;DHT22;18351;47.560;9.708;2023-01-08T00:42:51;2.10;99.90
31783;DHT22;18351;47.560;9.708;2023-01-08T00:45:16;2.10;99.90
31783;DHT22;18351;47.560;9.708;2023-01-08T00:47:42;2.10;99.90
31783;DHT22;18351;47.560;9.708;2023-01-08T00:50:08;2.20;99.90
31783;DHT22;18351;47.560;9.708;2023-01-08T00:52:33;2.20;99.90
31783;DHT22;18351;47.560;9.708;2023-01-08T00:54:59;2.10;99.90
31783;DHT22;18351;47.560;9.708;2023-01-08T00:57:24;2.00;99.90
31783;DHT22;18351;47.560;9.708;2023-01-08T00:59:50;2.10;99.90
31783;DHT22;18351;47.560;9.708;2023-01-08T01:02:15;2.00;99.90
31783;DHT22;18351;47.560;9.708;2023-01-08T01:04:41;2.00;99.90
31783;DHT22;18351;47.560;9.708;2023-01-08T01:07:06;2.00;99.90
31783;DHT22;18351;47.560;9.708;2023-01-08T01:09:32;1.90;99.90
31783;DHT22;18351;47.560;9.708;2023-01-08T01:11:57;1.90;99.90
31783;DHT22;18351;47.560;9.708;2023-01-08T01:14:23;2.00;99.90
31783;DHT22;18351;47.560;9.708;2023-01-08T01:16:49;1.90;99.90
31783;DHT22;18351;47.560;9.708;2023-01-08T01:19:16;1.90;99.90
31783;DHT22;18351;47.560;9.708;2023-01-08T01:21:42;1.90;99.90
31783;DHT22;18351;47.560;9.708;2023-01-08T01:24:10;2.00;99.90
31783;DHT22;18351;47.560;9.708;2023-01-08T01:26:36;2.00;99.90
31783;DHT22;18351;47.560;9.708;2023-01-08T01:29:01;2.00;99.90
31783;DHT22;18351;47.560;9.708;2023-01-08T01:31:29;2.00;99.90
31783;DHT22;18351;47.560;9.708;2023-01-08T01:33:55;2.00;99.90
31783;DHT22;18351;47.560;9.708;2023-01-08T01:36:21;2.00;99.90
31783;DHT22;18351;47.560;9.708;2023-01-08T01:38:49;2.00;99.90
31783;DHT22;18351;47.560;9.708;2023-01-08T01:41:43;1.90;99.90
31783;DHT22;18351;47.560;9.708;2023-01-08T01:44:36;1.90;99.90
31783;DHT22;18351;47.560;9.708;2023-01-08T01:47:12;1.80;99.90
31783;DHT22;18351;47.560;9.708;2023-01-08T01:49:42;1.80;99.90
31783;DHT22;18351;47.560;9.708;2023-01-08T01:52:11;1.60;99.90
31783;DHT22;18351;47.560;9.708;2023-01-08T01:54:37;1.60;99.90
31783;DHT22;18351;47.560;9.708;2023-01-08T01:57:03;1.50;99.90
31783;DHT22;18351;47.560;9.708;2023-01-08T01:59:30;1.50;99.90
31783;DHT22;18351;47.560;9.708;2023-01-08T02:01:56;1.50;99.90
31783;DHT22;18351;47.560;9.708;2023-01-08T02:04:22;1.50;99.90
31783;DHT22;18351;47.560;9.708;2023-01-08T02:09:46;1.50;99.90
31783;DHT22;18351;47.560;9.708;2023-01-08T02:12:37;1.40;99.90
31783;DHT22;18351;47.560;9.708;2023-01-08T02:15:20;1.30;99.90
31783;DHT22;18351;47.560;9.708;2023-01-08T02:18:11;1.30;99.90
31783;DHT22;18351;47.560;9.708;2023-01-08T02:20:42;1.20;99.90
31783;DHT22;18351;47.560;9.708;2023-01-08T02:26:39;1.10;99.90
31783;DHT22;18351;47.560;9.708;2023-01-08T02:31:25;1.10;99.90
31783;DHT22;18351;47.560;9.708;2023-01-08T02:33:51;1.10;99.90
31783;DHT22;18351;47.560;9.708;2023-01-08T02:44:47;1.00;99.90
31783;DHT22;18351;47.560;9.708;2023-01-08T02:47:40;1.00;99.90
31783;DHT22;18351;47.560;9.708;2023-01-08T02:55:36;0.90;99.90
31783;DHT22;18351;47.560;9.708;2023-01-08T02:58:04;0.90;99.90
31783;DHT22;18351;47.560;9.708;2023-01-08T03:00:30;0.90;99.90
31783;DHT22;18351;47.560;9.708;2023-01-08T03:03:26;0.90;99.90
31783;DHT22;18351;47.560;9.708;2023-01-08T03:05:58;1.00;99.90
31783;DHT22;18351;47.560;9.708;2023-01-08T03:08:24;1.00;99.90
31783;DHT22;18351;47.560;9.708;2023-01-08T03:11:17;1.00;99.90
31783;DHT22;18351;47.560;9.708;2023-01-08T03:13:54;1.00;99.90
31783;DHT22;18351;47.560;9.708;2023-01-08T03:16:29;1.00;99.90
31783;DHT22;18351;47.560;9.708;2023-01-08T03:19:00;1.10;99.90
31783;DHT22;18351;47.560;9.708;2023-01-08T03:21:27;1.10;99.90
31783;DHT22;18351;47.560;9.708;2023-01-08T03:23:55;1.10;99.90
31783;DHT22;18351;47.560;9.708;2023-01-08T03:26:23;1.10;99.90
31783;DHT22;18351;47.560;9.708;2023-01-08T03:28:53;1.10;99.90
31783;DHT22;18351;47.560;9.708;2023-01-08T03:31:22;1.10;99.90
31783;DHT22;18351;47.560;9.708;2023-01-08T03:33:48;1.10;99.90
31783;DHT22;18351;47.560;9.708;2023-01-08T03:36:19;1.10;99.90
31783;DHT22;18351;47.560;9.708;2023-01-08T03:38:57;1.00;99.90
31783;DHT22;18351;47.560;9.708;2023-01-08T03:41:23;1.00;99.90
31783;DHT22;18351;47.560;9.708;2023-01-08T03:43:51;1.00;99.90
31783;DHT22;18351;47.560;9.708;2023-01-08T03:46:22;1.00;99.90
31783;DHT22;18351;47.560;9.708;2023-01-08T03:48:49;0.90;99.90
31783;DHT22;18351;47.560;9.708;2023-01-08T03:51:15;0.90;99.90
31783;DHT22;18351;47.560;9.708;2023-01-08T03:53:43;0.90;99.90
31783;DHT22;18351;47.560;9.708;2023-01-08T03:56:08;1.00;99.90
31783;DHT22;18351;47.560;9.708;2023-01-08T03:58:34;1.00;99.90
31783;DHT22;18351;47.560;9.708;2023-01-08T04:00:59;1.00;99.90
31783;DHT22;18351;47.560;9.708;2023-01-08T04:03:25;1.00;99.90
31783;DHT22;18351;47.560;9.708;2023-01-08T04:05:51;1.10;99.90
31783;DHT22;18351;47.560;9.708;2023-01-08T04:08:16;1.10;99.90
31783;DHT22;18351;47.560;9.708;2023-01-08T04:10:42;1.10;99.90
31783;DHT22;18351;47.560;9.708;2023-01-08T04:13:07;1.10;99.90
31783;DHT22;18351;47.560;9.708;2023-01-08T04:15:33;1.10;99.90
31783;DHT22;18351;47.560;9.708;2023-01-08T04:17:58;1.10;99.90
31783;DHT22;18351;47.560;9.708;2023-01-08T04:20:24;1.10;99.90
31783;DHT22;18351;47.560;9.708;2023-01-08T04:22:49;1.10;99.90
31783;DHT22;18351;47.560;9.708;2023-01-08T04:25:15;1.10;99.90
31783;DHT22;18351;47.560;9.708;2023-01-08T04:27:41;1.20;99.90
31783;DHT22;18351;47.560;9.708;2023-01-08T04:30:07;1.20;99.90
31783;DHT22;18351;47.560;9.708;2023-01-08T04:32:32;1.20;99.90
31783;DHT22;18351;47.560;9.708;2023-01-08T04:34:58;1.30;99.90
31783;DHT22;18351;47.560;9.708;2023-01-08T04:37:23;1.30;99.90
31783;DHT22;18351;47.560;9.708;2023-01-08T04:39:49;1.40;99.90
31783;DHT22;18351;47.560;9.708;2023-01-08T04:42:14;1.40;99.90
31783;DHT22;18351;47.560;9.708;2023-01-08T04:44:40;1.40;99.90
31783;DHT22;18351;47.560;9.708;2023-01-08T04:47:05;1.50;99.90
31783;DHT22;18351;47.560;9.708;2023-01-08T04:49:31;1.50;99.90
31783;DHT22;18351;47.560;9.708;2023-01-08T04:51:56;1.60;99.90
31783;DHT22;18351;47.560;9.708;2023-01-08T04:54:22;1.60;99.90
31783;DHT22;18351;47.560;9.708;2023-01-08T04:56:51;1.70;99.90
31783;DHT22;18351;47.560;9.708;2023-01-08T04:59:16;1.60;99.90
31783;DHT22;18351;47.560;9.708;2023-01-08T05:01:42;1.70;99.90
31783;DHT22;18351;47.560;9.708;2023-01-08T05:04:10;1.80;99.90
31783;DHT22;18351;47.560;9.708;2023-01-08T05:06:35;1.80;99.90
31783;DHT22;18351;47.560;9.708;2023-01-08T05:09:01;1.80;99.90
31783;DHT22;18351;47.560;9.708;2023-01-08T05:11:26;1.80;99.90
31783;DHT22;18351;47.560;9.708;2023-01-08T05:13:53;1.90;99.90
31783;DHT22;18351;47.560;9.708;2023-01-08T05:16:19;1.80;99.90
31783;DHT22;18351;47.560;9.708;2023-01-08T05:18:44;1.70;99.90
31783;DHT22;18351;47.560;9.708;2023-01-08T05:21:10;1.70;99.90
31783;DHT22;18351;47.560;9.708;2023-01-08T05:23:36;1.70;99.90
31783;DHT22;18351;47.560;9.708;2023-01-08T05:26:04;1.80;99.90
31783;DHT22;18351;47.560;9.708;2023-01-08T05:28:30;1.80;99.90
31783;DHT22;18351;47.560;9.708;2023-01-08T05:30:56;1.90;99.90
31783;DHT22;18351;47.560;9.708;2023-01-08T05:33:22;1.90;99.90
31783;DHT22;18351;47.560;9.708;2023-01-08T05:35:48;1.80;99.90
31783;DHT22;18351;47.560;9.708;2023-01-08T05:38:14;1.90;99.90
31783;DHT22;18351;47.560;9.708;2023-01-08T05:40:40;1.90;99.90
31783;DHT22;18351;47.560;9.708;2023-01-08T05:43:05;1.90;99.90
31783;DHT22;18351;47.560;9.708;2023-01-08T05:45:32;2.00;99.90
31783;DHT22;18351;47.560;9.708;2023-01-08T05:47:57;1.90;99.90
31783;DHT22;18351;47.560;9.708;2023-01-08T05:50:23;1.90;99.90
31783;DHT22;18351;47.560;9.708;2023-01-08T05:52:48;2.00;99.90
31783;DHT22;18351;47.560;9.708;2023-01-08T05:55:14;2.00;99.90
31783;DHT22;18351;47.560;9.708;2023-01-08T05:57:40;2.00;99.90
31783;DHT22;18351;47.560;9.708;2023-01-08T06:00:07;1.90;99.90
31783;DHT22;18351;47.560;9.708;2023-01-08T06:02:33;2.00;99.90
31783;DHT22;18351;47.560;9.708;2023-01-08T06:04:59;2.00;99.90
31783;DHT22;18351;47.560;9.708;2023-01-08T06:07:24;2.10;99.90
31783;DHT22;18351;47.560;9.708;2023-01-08T06:09:50;2.20;99.90
31783;DHT22;18351;47.560;9.708;2023-01-08T06:12:16;2.10;99.90
31783;DHT22;18351;47.560;9.708;2023-01-08T06:14:41;2.10;99.90
31783;DHT22;18351;47.560;9.708;2023-01-08T06:17:07;2.20;99.90
31783;DHT22;18351;47.560;9.708;2023-01-08T06:19:32;2.20;99.90
31783;DHT22;18351;47.560;9.708;2023-01-08T06:21:58;2.10;99.90
31783;DHT22;18351;47.560;9.708;2023-01-08T06:24:23;2.20;99.90
31783;DHT22;18351;47.560;9.708;2023-01-08T06:26:49;2.20;99.90
31783;DHT22;18351;47.560;9.708;2023-01-08T06:29:14;2.20;99.90
31783;DHT22;18351;47.560;9.708;2023-01-08T06:31:40;2.20;99.90
31783;DHT22;18351;47.560;9.708;2023-01-08T06:34:05;2.30;99.90
31783;DHT22;18351;47.560;9.708;2023-01-08T06:36:31;2.30;99.90
31783;DHT22;18351;47.560;9.708;2023-01-08T06:38:56;2.30;99.90
31783;DHT22;18351;47.560;9.708;2023-01-08T06:41:22;2.30;99.90
31783;DHT22;18351;47.560;9.708;2023-01-08T06:43:48;2.30;99.90
31783;DHT22;18351;47.560;9.708;2023-01-08T06:46:14;2.30;99.90
31783;DHT22;18351;47.560;9.708;2023-01-08T06:48:40;2.40;99.90
31783;DHT22;18351;47.560;9.708;2023-01-08T06:51:06;2.40;99.90
31783;DHT22;18351;47.560;9.708;2023-01-08T06:53:31;2.40;99.90
31783;DHT22;18351;47.560;9.708;2023-01-08T06:55:57;2.50;99.90
31783;DHT22;18351;47.560;9.708;2023-01-08T06:58:26;2.60;99.90
31783;DHT22;18351;47.560;9.708;2023-01-08T07:00:52;2.70;99.90
31783;DHT22;18351;47.560;9.708;2023-01-08T07:03:17;2.70;99.90
31783;DHT22;18351;47.560;9.708;2023-01-08T07:05:43;2.70;99.90
31783;DHT22;18351;47.560;9.708;2023-01-08T07:08:16;2.80;99.90
31783;DHT22;18351;47.560;9.708;2023-01-08T07:10:42;2.80;99.90
31783;DHT22;18351;47.560;9.708;2023-01-08T07:13:08;2.80;99.90
31783;DHT22;18351;47.560;9.708;2023-01-08T07:15:38;2.80;99.90
31783;DHT22;18351;47.560;9.708;2023-01-08T07:18:05;2.80;99.90
31783;DHT22;18351;47.560;9.708;2023-01-08T07:20:32;2.90;99.90
31783;DHT22;18351;47.560;9.708;2023-01-08T07:23:01;2.90;99.90
31783;DHT22;18351;47.560;9.708;2023-01-08T07:25:27;2.90;99.90
31783;DHT22;18351;47.560;9.708;2023-01-08T07:27:53;3.00;99.90
31783;DHT22;18351;47.560;9.708;2023-01-08T07:30:18;3.10;99.90
31783;DHT22;18351;47.560;9.708;2023-01-08T07:32:44;3.00;99.90
31783;DHT22;18351;47.560;9.708;2023-01-08T07:35:09;3.10;99.90
31783;DHT22;18351;47.560;9.708;2023-01-08T07:37:38;3.10;99.90
31783;DHT22;18351;47.560;9.708;2023-01-08T07:40:05;3.10;99.90
31783;DHT22;18351;47.560;9.708;2023-01-08T07:42:31;3.10;99.90
31783;DHT22;18351;47.560;9.708;2023-01-08T07:44:56;3.20;99.90
31783;DHT22;18351;47.560;9.708;2023-01-08T07:47:22;3.10;99.90
31783;DHT22;18351;47.560;9.708;2023-01-08T07:49:47;3.10;99.90
31783;DHT22;18351;47.560;9.708;2023-01-08T07:52:13;3.20;99.90
31783;DHT22;18351;47.560;9.708;2023-01-08T07:54:39;3.20;99.90
31783;DHT22;18351;47.560;9.708;2023-01-08T07:57:04;3.20;99.90
31783;DHT22;18351;47.560;9.708;2023-01-08T07:59:30;3.30;99.90
31783;DHT22;18351;47.560;9.708;2023-01-08T08:01:55;3.20;99.90
31783;DHT22;18351;47.560;9.708;2023-01-08T08:04:21;3.20;99.90
31783;DHT22;18351;47.560;9.708;2023-01-08T08:06:46;3.20;99.90
31783;DHT22;18351;47.560;9.708;2023-01-08T08:09:12;3.20;99.90
31783;DHT22;18351;47.560;9.708;2023-01-08T08:11:37;3.30;99.90
31783;DHT22;18351;47.560;9.708;2023-01-08T08:14:03;3.30;99.90
31783;DHT22;18351;47.560;9.708;2023-01-08T08:16:29;3.40;99.90
31783;DHT22;18351;47.560;9.708;2023-01-08T08:18:57;3.40;99.90
31783;DHT22;18351;47.560;9.708;2023-01-08T08:21:23;3.50;99.90
31783;DHT22;18351;47.560;9.708;2023-01-08T08:23:49;3.50;99.90
31783;DHT22;18351;47.560;9.708;2023-01-08T08:26:14;3.60;99.90
31783;DHT22;18351;47.560;9.708;2023-01-08T08:28:40;3.70;99.90
31783;DHT22;18351;47.560;9.708;2023-01-08T08:31:05;3.60;99.90
31783;DHT22;18351;47.560;9.708;2023-01-08T08:33:31;3.70;99.90
31783;DHT22;18351;47.560;9.708;2023-01-08T08:35:57;3.70;99.90
31783;DHT22;18351;47.560;9.708;2023-01-08T08:38:22;3.80;99.90
31783;DHT22;18351;47.560;9.708;2023-01-08T08:40:49;4.00;99.90
31783;DHT22;18351;47.560;9.708;2023-01-08T08:43:15;4.10;99.90
31783;DHT22;18351;47.560;9.708;2023-01-08T08:45:40;4.30;99.90
31783;DHT22;18351;47.560;9.708;2023-01-08T08:48:07;4.50;99.90
31783;DHT22;18351;47.560;9.708;2023-01-08T08:50:33;4.80;99.90
31783;DHT22;18351;47.560;9.708;2023-01-08T08:52:59;5.00;99.90
31783;DHT22;18351;47.560;9.708;2023-01-08T08:55:26;5.20;99.90
31783;DHT22;18351;47.560;9.708;2023-01-08T08:57:51;5.30;99.90
31783;DHT22;18351;47.560;9.708;2023-01-08T09:00:17;5.40;99.90
31783;DHT22;18351;47.560;9.708;2023-01-08T09:02:43;5.40;99.90
31783;DHT22;18351;47.560;9.708;2023-01-08T09:05:09;5.40;99.90
31783;DHT22;18351;47.560;9.708;2023-01-08T09:07:35;5.40;99.90
31783;DHT22;18351;47.560;9.708;2023-01-08T09:10:02;5.40;99.90
31783;DHT22;18351;47.560;9.708;2023-01-08T09:12:28;5.40;99.90
31783;DHT22;18351;47.560;9.708;2023-01-08T09:14:53;5.40;99.90
31783;DHT22;18351;47.560;9.708;2023-01-08T09:17:21;5.50;99.90
31783;DHT22;18351;47.560;9.708;2023-01-08T09:19:47;5.50;99.90
31783;DHT22;18351;47.560;9.708;2023-01-08T09:22:12;5.50;99.90
31783;DHT22;18351;47.560;9.708;2023-01-08T09:24:38;5.60;99.90
31783;DHT22;18351;47.560;9.708;2023-01-08T09:27:03;5.60;99.90
31783;DHT22;18351;47.560;9.708;2023-01-08T09:29:29;5.60;99.90
31783;DHT22;18351;47.560;9.708;2023-01-08T09:31:54;5.60;99.90
31783;DHT22;18351;47.560;9.708;2023-01-08T09:34:20;5.60;99.90
31783;DHT22;18351;47.560;9.708;2023-01-08T09:36:46;5.60;99.90
31783;DHT22;18351;47.560;9.708;2023-01-08T09:39:11;5.60;99.90
31783;DHT22;18351;47.560;9.708;2023-01-08T09:41:44;5.60;99.90
31783;DHT22;18351;47.560;9.708;2023-01-08T09:44:13;5.70;99.90
31783;DHT22;18351;47.560;9.708;2023-01-08T09:46:39;5.80;99.90
31783;DHT22;18351;47.560;9.708;2023-01-08T09:49:06;5.80;99.90
31783;DHT22;18351;47.560;9.708;2023-01-08T09:51:36;5.90;99.90
31783;DHT22;18351;47.560;9.708;2023-01-08T09:54:03;6.00;99.90
31783;DHT22;18351;47.560;9.708;2023-01-08T09:56:32;6.00;99.90
31783;DHT22;18351;47.560;9.708;2023-01-08T09:58:59;6.00;99.90
31783;DHT22;18351;47.560;9.708;2023-01-08T10:01:33;6.10;99.90
31783;DHT22;18351;47.560;9.708;2023-01-08T10:04:32;6.20;99.90
31783;DHT22;18351;47.560;9.708;2023-01-08T10:07:17;6.30;99.90
31783;DHT22;18351;47.560;9.708;2023-01-08T10:09:46;6.40;99.90
31783;DHT22;18351;47.560;9.708;2023-01-08T10:12:12;6.50;99.90
31783;DHT22;18351;47.560;9.708;2023-01-08T10:14:39;6.60;99.90
31783;DHT22;18351;47.560;9.708;2023-01-08T10:17:55;6.70;99.90
31783;DHT22;18351;47.560;9.708;2023-01-08T10:20:13;6.80;99.90
31783;DHT22;18351;47.560;9.708;2023-01-08T10:22:39;6.80;99.90
31783;DHT22;18351;47.560;9.708;2023-01-08T10:25:17;6.90;99.90
31783;DHT22;18351;47.560;9.708;2023-01-08T10:28:02;6.80;99.90
31783;DHT22;18351;47.560;9.708;2023-01-08T10:30:34;6.90;99.90
31783;DHT22;18351;47.560;9.708;2023-01-08T10:33:30;6.90;99.90
31783;DHT22;18351;47.560;9.708;2023-01-08T10:36:05;6.80;99.90
31783;DHT22;18351;47.560;9.708;2023-01-08T10:39:02;6.80;99.90
31783;DHT22;18351;47.560;9.708;2023-01-08T10:41:28;6.80;99.90
31783;DHT22;18351;47.560;9.708;2023-01-08T10:44:05;6.80;99.90
31783;DHT22;18351;47.560;9.708;2023-01-08T10:46:42;6.80;99.90
31783;DHT22;18351;47.560;9.708;2023-01-08T10:49:17;6.80;99.90
31783;DHT22;18351;47.560;9.708;2023-01-08T10:51:49;6.80;99.90
31783;DHT22;18351;47.560;9.708;2023-01-08T10:54:44;6.80;99.90
31783;DHT22;18351;47.560;9.708;2023-01-08T10:57:28;6.80;99.90
31783;DHT22;18351;47.560;9.708;2023-01-08T10:59:54;6.80;99.90
31783;DHT22;18351;47.560;9.708;2023-01-08T11:02:33;6.80;99.90
31783;DHT22;18351;47.560;9.708;2023-01-08T11:05:00;6.90;99.90
31783;DHT22;18351;47.560;9.708;2023-01-08T11:07:27;7.00;99.90
31783;DHT22;18351;47.560;9.708;2023-01-08T11:09:53;7.00;99.90
31783;DHT22;18351;47.560;9.708;2023-01-08T11:12:35;7.00;99.90
31783;DHT22;18351;47.560;9.708;2023-01-08T11:17:39;7.10;99.90
31783;DHT22;18351;47.560;9.708;2023-01-08T11:20:28;7.20;99.90
31783;DHT22;18351;47.560;9.708;2023-01-08T11:25:47;7.20;99.90
31783;DHT22;18351;47.560;9.708;2023-01-08T11:28:20;7.30;99.90
31783;DHT22;18351;47.560;9.708;2023-01-08T11:30:58;7.30;99.90
31783;DHT22;18351;47.560;9.708;2023-01-08T11:33:27;7.40;99.90
31783;DHT22;18351;47.560;9.708;2023-01-08T11:36:34;7.60;99.90
31783;DHT22;18351;47.560;9.708;2023-01-08T11:39:08;7.50;99.90
31783;DHT22;18351;47.560;9.708;2023-01-08T11:45:44;7.70;99.90
31783;DHT22;18351;47.560;9.708;2023-01-08T11:48:49;7.70;99.90
31783;DHT22;18351;47.560;9.708;2023-01-08T11:51:39;7.80;99.90
31783;DHT22;18351;47.560;9.708;2023-01-08T11:57:54;7.90;99.90
31783;DHT22;18351;47.560;9.708;2023-01-08T12:00:50;8.00;99.90
31783;DHT22;18351;47.560;9.708;2023-01-08T12:03:45;8.00;99.90
31783;DHT22;18351;47.560;9.708;2023-01-08T12:09:44;8.00;99.90
31783;DHT22;18351;47.560;9.708;2023-01-08T12:12:47;8.00;99.90
31783;DHT22;18351;47.560;9.708;2023-01-08T12:32:27;8.20;99.90
31783;DHT22;18351;47.560;9.708;2023-01-08T12:35:20;8.20;99.90
31783;DHT22;18351;47.560;9.708;2023-01-08T12:38:32;8.30;99.90
31783;DHT22;18351;47.560;9.708;2023-01-08T12:41:23;8.30;99.90
31783;DHT22;18351;47.560;9.708;2023-01-08T12:45:21;8.40;99.90
31783;DHT22;18351;47.560;9.708;2023-01-08T12:48:46;8.30;99.90
31783;DHT22;18351;47.560;9.708;2023-01-08T12:58:24;8.70;99.90
31783;DHT22;18351;47.560;9.708;2023-01-08T13:04:15;8.90;99.90
31783;DHT22;18351;47.560;9.708;2023-01-08T13:07:05;8.90;99.90
31783;DHT22;18351;47.560;9.708;2023-01-08T13:09:34;8.90;99.90
31783;DHT22;18351;47.560;9.708;2023-01-08T13:14:57;8.80;99.90
31783;DHT22;18351;47.560;9.708;2023-01-08T13:18:29;8.70;99.90
31783;DHT22;18351;47.560;9.708;2023-01-08T13:25:35;8.60;99.90
31783;DHT22;18351;47.560;9.708;2023-01-08T13:28:42;8.50;99.90
31783;DHT22;18351;47.560;9.708;2023-01-08T13:31:27;8.50;99.90
31783;DHT22;18351;47.560;9.708;2023-01-08T13:34:37;8.50;99.90
31783;DHT22;18351;47.560;9.708;2023-01-08T13:37:04;8.50;99.90
31783;DHT22;18351;47.560;9.708;2023-01-08T13:39:36;8.40;99.90
31783;DHT22;18351;47.560;9.708;2023-01-08T13:44:58;8.40;99.90
31783;DHT22;18351;47.560;9.708;2023-01-08T13:47:31;8.30;99.90
31783;DHT22;18351;47.560;9.708;2023-01-08T13:50:20;8.20;99.90
31783;DHT22;18351;47.560;9.708;2023-01-08T13:52:47;8.00;99.90
31783;DHT22;18351;47.560;9.708;2023-01-08T13:55:27;7.90;99.90
31783;DHT22;18351;47.560;9.708;2023-01-08T13:57:58;7.90;99.90
31783;DHT22;18351;47.560;9.708;2023-01-08T14:02:56;8.00;99.90
31783;DHT22;18351;47.560;9.708;2023-01-08T14:05:25;8.00;99.90
31783;DHT22;18351;47.560;9.708;2023-01-08T14:07:51;7.90;99.90
31783;DHT22;18351;47.560;9.708;2023-01-08T14:10:17;8.00;99.90
31783;DHT22;18351;47.560;9.708;2023-01-08T14:12:43;8.00;99.90
31783;DHT22;18351;47.560;9.708;2023-01-08T14:15:24;8.10;99.90
31783;DHT22;18351;47.560;9.708;2023-01-08T14:17:50;8.10;99.90
31783;DHT22;18351;47.560;9.708;2023-01-08T14:20:29;8.20;99.90
31783;DHT22;18351;47.560;9.708;2023-01-08T14:22:56;8.20;99.90
31783;DHT22;18351;47.560;9.708;2023-01-08T14:25:22;8.30;99.90
31783;DHT22;18351;47.560;9.708;2023-01-08T14:27:58;8.30;99.90
31783;DHT22;18351;47.560;9.708;2023-01-08T14:30:24;8.30;99.90
31783;DHT22;18351;47.560;9.708;2023-01-08T14:32:50;8.30;99.90
31783;DHT22;18351;47.560;9.708;2023-01-08T14:35:20;8.20;99.90
31783;DHT22;18351;47.560;9.708;2023-01-08T14:37:47;8.20;99.90
31783;DHT22;18351;47.560;9.708;2023-01-08T14:40:15;8.20;99.90
31783;DHT22;18351;47.560;9.708;2023-01-08T14:42:42;8.10;99.90
31783;DHT22;18351;47.560;9.708;2023-01-08T14:47:48;8.00;99.90
31783;DHT22;18351;47.560;9.708;2023-01-08T14:50:26;8.10;99.90
31783;DHT22;18351;47.560;9.708;2023-01-08T14:52:55;8.10;99.90
31783;DHT22;18351;47.560;9.708;2023-01-08T14:55:22;8.10;99.90
31783;DHT22;18351;47.560;9.708;2023-01-08T14:57:53;8.10;99.90
31783;DHT22;18351;47.560;9.708;2023-01-08T15:00:24;8.10;99.90
31783;DHT22;18351;47.560;9.708;2023-01-08T15:02:51;8.10;99.90
31783;DHT22;18351;47.560;9.708;2023-01-08T15:08:03;8.10;99.90
31783;DHT22;18351;47.560;9.708;2023-01-08T15:11:45;8.10;99.90
31783;DHT22;18351;47.560;9.708;2023-01-08T15:13:41;8.00;99.90
31783;DHT22;18351;47.560;9.708;2023-01-08T15:16:17;7.90;99.90
31783;DHT22;18351;47.560;9.708;2023-01-08T15:18:49;7.80;99.90
31783;DHT22;18351;47.560;9.708;2023-01-08T15:21:18;7.80;99.90
31783;DHT22;18351;47.560;9.708;2023-01-08T15:23:54;7.90;99.90
31783;DHT22;18351;47.560;9.708;2023-01-08T15:26:21;7.90;99.90
31783;DHT22;18351;47.560;9.708;2023-01-08T15:28:55;7.80;99.90
31783;DHT22;18351;47.560;9.708;2023-01-08T15:31:26;7.80;99.90
31783;DHT22;18351;47.560;9.708;2023-01-08T15:33:52;7.80;99.90
31783;DHT22;18351;47.560;9.708;2023-01-08T15:36:18;7.70;99.90
31783;DHT22;18351;47.560;9.708;2023-01-08T15:38:45;7.70;99.90
31783;DHT22;18351;47.560;9.708;2023-01-08T15:41:17;7.70;99.90
31783;DHT22;18351;47.560;9.708;2023-01-08T15:44:18;7.60;99.90
31783;DHT22;18351;47.560;9.708;2023-01-08T15:46:44;7.50;99.90
31783;DHT22;18351;47.560;9.708;2023-01-08T15:49:09;7.60;99.90
31783;DHT22;18351;47.560;9.708;2023-01-08T15:51:44;7.50;99.90
31783;DHT22;18351;47.560;9.708;2023-01-08T15:54:11;7.50;99.90
31783;DHT22;18351;47.560;9.708;2023-01-08T15:56:37;7.50;99.90
31783;DHT22;18351;47.560;9.708;2023-01-08T15:59:03;7.50;99.90
31783;DHT22;18351;47.560;9.708;2023-01-08T16:01:29;7.50;99.90
31783;DHT22;18351;47.560;9.708;2023-01-08T16:03:57;7.50;99.90
31783;DHT22;18351;47.560;9.708;2023-01-08T16:06:22;7.40;99.90
31783;DHT22;18351;47.560;9.708;2023-01-08T16:08:48;7.30;99.90
31783;DHT22;18351;47.560;9.708;2023-01-08T16:11:15;7.30;99.90
31783;DHT22;18351;47.560;9.708;2023-01-08T16:13:40;7.30;99.90
31783;DHT22;18351;47.560;9.708;2023-01-08T16:16:10;7.20;99.90
31783;DHT22;18351;47.560;9.708;2023-01-08T16:18:37;7.20;99.90
31783;DHT22;18351;47.560;9.708;2023-01-08T16:21:04;7.20;99.90
31783;DHT22;18351;47.560;9.708;2023-01-08T16:23:32;7.10;99.90
31783;DHT22;18351;47.560;9.708;2023-01-08T16:25:57;7.10;99.90
31783;DHT22;18351;47.560;9.708;2023-01-08T16:28:23;7.10;99.90
31783;DHT22;18351;47.560;9.708;2023-01-08T16:30:49;7.00;99.90
31783;DHT22;18351;47.560;9.708;2023-01-08T16:33:15;7.00;99.90
31783;DHT22;18351;47.560;9.708;2023-01-08T16:35:40;7.00;99.90
31783;DHT22;18351;47.560;9.708;2023-01-08T16:38:06;7.00;99.90
31783;DHT22;18351;47.560;9.708;2023-01-08T16:40:32;6.90;99.90
31783;DHT22;18351;47.560;9.708;2023-01-08T16:42:59;6.80;99.90
31783;DHT22;18351;47.560;9.708;2023-01-08T16:45:28;6.80;99.90
31783;DHT22;18351;47.560;9.708;2023-01-08T16:47:53;6.80;99.90
31783;DHT22;18351;47.560;9.708;2023-01-08T16:50:19;6.80;99.90
31783;DHT22;18351;47.560;9.708;2023-01-08T16:52:45;6.80;99.90
31783;DHT22;18351;47.560;9.708;2023-01-08T16:55:10;6.70;99.90
31783;DHT22;18351;47.560;9.708;2023-01-08T16:57:36;6.70;99.90
31783;DHT22;18351;47.560;9.708;2023-01-08T17:00:03;6.70;99.90
31783;DHT22;18351;47.560;9.708;2023-01-08T17:02:29;6.70;99.90
31783;DHT22;18351;47.560;9.708;2023-01-08T17:04:55;6.70;99.90
31783;DHT22;18351;47.560;9.708;2023-01-08T17:07:20;6.70;99.90
31783;DHT22;18351;47.560;9.708;2023-01-08T17:09:46;6.70;99.90
31783;DHT22;18351;47.560;9.708;2023-01-08T17:12:11;6.60;99.90
31783;DHT22;18351;47.560;9.708;2023-01-08T17:14:47;6.60;99.90
31783;DHT22;18351;47.560;9.708;2023-01-08T17:17:13;6.60;99.90
31783;DHT22;18351;47.560;9.708;2023-01-08T17:19:38;6.60;99.90
31783;DHT22;18351;47.560;9.708;2023-01-08T17:22:04;6.60;99.90
31783;DHT22;18351;47.560;9.708;2023-01-08T17:24:29;6.60;99.90
31783;DHT22;18351;47.560;9.708;2023-01-08T17:26:56;6.60;99.90
31783;DHT22;18351;47.560;9.708;2023-01-08T17:29:22;6.60;99.90